sensor_id;sensor_type;location;lat;lon;timestamp;temperature;humidity
1137;DHT22;557;48.466;7.950;2023-11-18T00:00:54;6.80;99.90
1137;DHT22;557;48.466;7.950;2023-11-18T00:03:21;6.70;99.90
1137;DHT22;557;48.466;7.950;2023-11-18T00:05:48;6.60;99.90
1137;DHT22;557;48.466;7.950;2023-11-18T00:08:14;6.60;99.90
1137;DHT22;557;48.466;7.950;2023-11-18T00:10:41;6.70;99.90
1137;DHT22;557;48.466;7.950;2023-11-18T00:13:09;6.70;99.90
1137;DHT22;557;48.466;7.950;2023-11-18T00:15:36;6.60;99.90
1137;DHT22;557;48.466;7.950;2023-11-18T00:18:03;6.50;99.90
1137;DHT22;557;48.466;7.950;2023-11-18T00:20:30;6.50;99.90
1137;DHT22;557;48.466;7.950;2023-11-18T00:22:57;6.40;99.90
1137;DHT22;557;48.466;7.950;2023-11-18T00:25:24;6.40;99.90
1137;DHT22;557;48.466;7.950;2023-11-18T00:27:51;6.40;99.90
1137;DHT22;557;48.466;7.950;2023-11-18T00:30:19;6.40;99.90
1137;DHT22;557;48.466;7.950;2023-11-18T00:32:46;6.40;99.90
1137;DHT22;557;48.466;7.950;2023-11-18T00:35:13;6.40;99.90
1137;DHT22;557;48.466;7.950;2023-11-18T00:37:40;6.40;99.90
1137;DHT22;557;48.466;7.950;2023-11-18T00:40:08;6.30;99.90
1137;DHT22;557;48.466;7.950;2023-11-18T00:42:35;6.30;99.90
1137;DHT22;557;48.466;7.950;2023-11-18T00:45:01;6.30;99.90
1137;DHT22;557;48.466;7.950;2023-11-18T00:47:31;6.20;99.90
1137;DHT22;557;48.466;7.950;2023-11-18T00:49:57;6.20;99.90
1137;DHT22;557;48.466;7.950;2023-11-18T00:52:28;6.20;99.90
1137;DHT22;557;48.466;7.950;2023-11-18T00:54:55;6.20;99.90
1137;DHT22;557;48.466;7.950;2023-11-18T00:57:22;6.20;99.90
1137;DHT22;557;48.466;7.950;2023-11-18T00:59:49;6.20;99.90
1137;DHT22;557;48.466;7.950;2023-11-18T01:02:15;6.20;99.90
1137;DHT22;557;48.466;7.950;2023-11-18T01:04:45;6.30;99.90
1137;DHT22;557;48.466;7.950;2023-11-18T01:07:12;6.30;99.90
1137;DHT22;557;48.466;7.950;2023-11-18T01:09:39;6.30;99.90
1137;DHT22;557;48.466;7.950;2023-11-18T01:12:06;6.40;99.90
1137;DHT22;557;48.466;7.950;2023-11-18T01:14:35;6.40;99.90
1137;DHT22;557;48.466;7.950;2023-11-18T01:17:03;6.40;99.90
1137;DHT22;557;48.466;7.950;2023-11-18T01:19:30;6.40;99.90
1137;DHT22;557;48.466;7.950;2023-11-18T01:21:59;6.50;99.90
1137;DHT22;557;48.466;7.950;2023-11-18T01:24:26;6.40;99.90
1137;DHT22;557;48.466;7.950;2023-11-18T01:26:53;6.40;99.90
1137;DHT22;557;48.466;7.950;2023-11-18T01:29:20;6.40;99.90
1137;DHT22;557;48.466;7.950;2023-11-18T01:31:47;6.40;99.90
1137;DHT22;557;48.466;7.950;2023-11-18T01:34:14;6.40;99.90
1137;DHT22;557;48.466;7.950;2023-11-18T01:36:42;6.40;99.90
1137;DHT22;557;48.466;7.950;2023-11-18T01:39:11;6.40;99.90
1137;DHT22;557;48.466;7.950;2023-11-18T01:41:38;6.30;99.90
1137;DHT22;557;48.466;7.950;2023-11-18T01:44:05;6.30;99.90
1137;DHT22;557;48.466;7.950;2023-11-18T01:46:34;6.30;99.90
1137;DHT22;557;48.466;7.950;2023-11-18T01:49:02;6.30;99.90
1137;DHT22;557;48.466;7.950;2023-11-18T01:51:29;6.30;99.90
1137;DHT22;557;48.466;7.950;2023-11-18T01:53:57;6.20;99.90
1137;DHT22;557;48.466;7.950;2023-11-18T01:56:28;6.20;99.90
1137;DHT22;557;48.466;7.950;2023-11-18T01:58:55;6.20;99.90
1137;DHT22;557;48.466;7.950;2023-11-18T02:01:25;6.20;99.90
1137;DHT22;557;48.466;7.950;2023-11-18T02:03:53;6.10;99.90
1137;DHT22;557;48.466;7.950;2023-11-18T02:06:20;6.10;99.90
1137;DHT22;557;48.466;7.950;2023-11-18T02:08:47;6.10;99.90
1137;DHT22;557;48.466;7.950;2023-11-18T02:11:20;6.10;99.90
1137;DHT22;557;48.466;7.950;2023-11-18T02:13:53;6.10;99.90
1137;DHT22;557;48.466;7.950;2023-11-18T02:16:22;6.00;99.90
1137;DHT22;557;48.466;7.950;2023-11-18T02:18:51;6.00;99.90
1137;DHT22;557;48.466;7.950;2023-11-18T02:21:19;6.00;99.90
1137;DHT22;557;48.466;7.950;2023-11-18T02:23:48;6.00;99.90
1137;DHT22;557;48.466;7.950;2023-11-18T02:26:22;6.00;99.90
1137;DHT22;557;48.466;7.950;2023-11-18T02:28:49;5.90;99.90
1137;DHT22;557;48.466;7.950;2023-11-18T02:31:22;5.90;99.90
1137;DHT22;557;48.466;7.950;2023-11-18T02:34:00;5.90;99.90
1137;DHT22;557;48.466;7.950;2023-11-18T02:36:32;5.90;99.90
1137;DHT22;557;48.466;7.950;2023-11-18T02:39:04;5.80;99.90
1137;DHT22;557;48.466;7.950;2023-11-18T02:41:35;5.80;99.90
1137;DHT22;557;48.466;7.950;2023-11-18T02:44:05;5.80;99.90
1137;DHT22;557;48.466;7.950;2023-11-18T02:46:36;5.70;99.90
1137;DHT22;557;48.466;7.950;2023-11-18T02:49:03;5.70;99.90
1137;DHT22;557;48.466;7.950;2023-11-18T02:51:30;5.70;99.90
1137;DHT22;557;48.466;7.950;2023-11-18T02:53:59;5.60;99.90
1137;DHT22;557;48.466;7.950;2023-11-18T02:56:26;5.60;99.90
1137;DHT22;557;48.466;7.950;2023-11-18T02:58:54;5.60;99.90
1137;DHT22;557;48.466;7.950;2023-11-18T03:01:21;5.60;99.90
1137;DHT22;557;48.466;7.950;2023-11-18T03:03:49;5.50;99.90
1137;DHT22;557;48.466;7.950;2023-11-18T03:06:16;5.50;99.90
1137;DHT22;557;48.466;7.950;2023-11-18T03:08:43;5.50;99.90
1137;DHT22;557;48.466;7.950;2023-11-18T03:11:10;5.40;99.90
1137;DHT22;557;48.466;7.950;2023-11-18T03:13:37;5.40;99.90
1137;DHT22;557;48.466;7.950;2023-11-18T03:16:08;5.30;99.90
1137;DHT22;557;48.466;7.950;2023-11-18T03:18:37;5.30;99.90
1137;DHT22;557;48.466;7.950;2023-11-18T03:21:10;5.30;99.90
1137;DHT22;557;48.466;7.950;2023-11-18T03:23:37;5.30;99.90
1137;DHT22;557;48.466;7.950;2023-11-18T03:26:05;5.20;99.90
1137;DHT22;557;48.466;7.950;2023-11-18T03:28:32;5.20;99.90
1137;DHT22;557;48.466;7.950;2023-11-18T03:30:59;5.20;99.90
1137;DHT22;557;48.466;7.950;2023-11-18T03:33:27;5.20;99.90
1137;DHT22;557;48.466;7.950;2023-11-18T03:35:54;5.20;99.90
1137;DHT22;557;48.466;7.950;2023-11-18T03:38:22;5.20;99.90
1137;DHT22;557;48.466;7.950;2023-11-18T03:40:49;5.20;99.90
1137;DHT22;557;48.466;7.950;2023-11-18T03:43:17;5.20;99.90
1137;DHT22;557;48.466;7.950;2023-11-18T03:45:45;5.20;99.90
1137;DHT22;557;48.466;7.950;2023-11-18T03:48:12;5.10;99.90
1137;DHT22;557;48.466;7.950;2023-11-18T03:50:41;5.10;99.90
1137;DHT22;557;48.466;7.950;2023-11-18T03:53:10;5.10;99.90
1137;DHT22;557;48.466;7.950;2023-11-18T03:55:37;5.10;99.90
1137;DHT22;557;48.466;7.950;2023-11-18T03:58:04;5.10;99.90
1137;DHT22;557;48.466;7.950;2023-11-18T04:00:31;5.10;99.90
1137;DHT22;557;48.466;7.950;2023-11-18T04:02:58;5.00;99.90
1137;DHT22;557;48.466;7.950;2023-11-18T04:05:25;5.00;99.90
1137;DHT22;557;48.466;7.950;2023-11-18T04:07:54;5.10;99.90
1137;DHT22;557;48.466;7.950;2023-11-18T04:10:20;5.00;99.90
1137;DHT22;557;48.466;7.950;2023-11-18T04:12:48;5.00;99.90
1137;DHT22;557;48.466;7.950;2023-11-18T04:15:15;4.90;99.90
1137;DHT22;557;48.466;7.950;2023-11-18T04:17:42;5.00;99.90
1137;DHT22;557;48.466;7.950;2023-11-18T04:20:10;4.80;99.90
1137;DHT22;557;48.466;7.950;2023-11-18T04:22:39;4.80;99.90
1137;DHT22;557;48.466;7.950;2023-11-18T04:25:08;4.80;99.90
1137;DHT22;557;48.466;7.950;2023-11-18T04:27:35;4.80;99.90
1137;DHT22;557;48.466;7.950;2023-11-18T04:30:03;4.80;99.90
1137;DHT22;557;48.466;7.950;2023-11-18T04:32:30;4.70;99.90
1137;DHT22;557;48.466;7.950;2023-11-18T04:34:58;4.70;99.90
1137;DHT22;557;48.466;7.950;2023-11-18T04:37:25;4.80;99.90
1137;DHT22;557;48.466;7.950;2023-11-18T04:39:52;4.70;99.90
1137;DHT22;557;48.466;7.950;2023-11-18T04:42:22;4.70;99.90
1137;DHT22;557;48.466;7.950;2023-11-18T04:44:49;4.70;99.90
1137;DHT22;557;48.466;7.950;2023-11-18T04:47:16;4.70;99.90
1137;DHT22;557;48.466;7.950;2023-11-18T04:49:44;4.70;99.90
1137;DHT22;557;48.466;7.950;2023-11-18T04:52:10;4.70;99.90
1137;DHT22;557;48.466;7.950;2023-11-18T04:54:37;4.70;99.90
1137;DHT22;557;48.466;7.950;2023-11-18T04:57:04;4.70;99.90
1137;DHT22;557;48.466;7.950;2023-11-18T04:59:36;4.70;99.90
1137;DHT22;557;48.466;7.950;2023-11-18T05:02:02;4.60;99.90
1137;DHT22;557;48.466;7.950;2023-11-18T05:04:29;4.60;99.90
1137;DHT22;557;48.466;7.950;2023-11-18T05:06:56;4.60;99.90
1137;DHT22;557;48.466;7.950;2023-11-18T05:09:23;4.60;99.90
1137;DHT22;557;48.466;7.950;2023-11-18T05:11:51;4.60;99.90
1137;DHT22;557;48.466;7.950;2023-11-18T05:14:18;4.60;99.90
1137;DHT22;557;48.466;7.950;2023-11-18T05:16:46;4.60;99.90
1137;DHT22;557;48.466;7.950;2023-11-18T05:19:13;4.60;99.90
1137;DHT22;557;48.466;7.950;2023-11-18T05:21:42;4.60;99.90
1137;DHT22;557;48.466;7.950;2023-11-18T05:24:09;4.60;99.90
1137;DHT22;557;48.466;7.950;2023-11-18T05:26:36;4.60;99.90
1137;DHT22;557;48.466;7.950;2023-11-18T05:29:03;4.60;99.90
1137;DHT22;557;48.466;7.950;2023-11-18T05:31:31;4.60;99.90
1137;DHT22;557;48.466;7.950;2023-11-18T05:34:00;4.50;99.90
1137;DHT22;557;48.466;7.950;2023-11-18T05:36:28;4.50;99.90
1137;DHT22;557;48.466;7.950;2023-11-18T05:39:02;4.50;99.90
1137;DHT22;557;48.466;7.950;2023-11-18T05:41:30;4.50;99.90
1137;DHT22;557;48.466;7.950;2023-11-18T05:43:58;4.50;99.90
1137;DHT22;557;48.466;7.950;2023-11-18T05:46:25;4.50;99.90
1137;DHT22;557;48.466;7.950;2023-11-18T05:48:55;4.50;99.90
1137;DHT22;557;48.466;7.950;2023-11-18T05:51:25;4.50;99.90
1137;DHT22;557;48.466;7.950;2023-11-18T05:53:54;4.50;99.90
1137;DHT22;557;48.466;7.950;2023-11-18T05:56:21;4.50;99.90
1137;DHT22;557;48.466;7.950;2023-11-18T05:58:48;4.50;99.90
1137;DHT22;557;48.466;7.950;2023-11-18T06:01:16;4.50;99.90
1137;DHT22;557;48.466;7.950;2023-11-18T06:03:46;4.50;99.90
1137;DHT22;557;48.466;7.950;2023-11-18T06:06:14;4.50;99.90
1137;DHT22;557;48.466;7.950;2023-11-18T06:08:43;4.50;99.90
1137;DHT22;557;48.466;7.950;2023-11-18T06:11:11;4.50;99.90
1137;DHT22;557;48.466;7.950;2023-11-18T06:13:42;4.50;99.90
1137;DHT22;557;48.466;7.950;2023-11-18T06:16:12;4.50;99.90
1137;DHT22;557;48.466;7.950;2023-11-18T06:18:41;4.50;99.90
1137;DHT22;557;48.466;7.950;2023-11-18T06:21:12;4.50;99.90
1137;DHT22;557;48.466;7.950;2023-11-18T06:23:40;4.50;99.90
1137;DHT22;557;48.466;7.950;2023-11-18T06:26:08;4.50;99.90
1137;DHT22;557;48.466;7.950;2023-11-18T06:28:38;4.50;99.90
1137;DHT22;557;48.466;7.950;2023-11-18T06:31:05;4.50;99.90
1137;DHT22;557;48.466;7.950;2023-11-18T06:33:38;4.50;99.90
1137;DHT22;557;48.466;7.950;2023-11-18T06:36:08;4.50;99.90
1137;DHT22;557;48.466;7.950;2023-11-18T06:38:37;4.60;99.90
1137;DHT22;557;48.466;7.950;2023-11-18T06:41:05;4.60;99.90
1137;DHT22;557;48.466;7.950;2023-11-18T06:43:36;4.70;99.90
1137;DHT22;557;48.466;7.950;2023-11-18T06:46:18;4.80;99.90
1137;DHT22;557;48.466;7.950;2023-11-18T06:48:46;4.90;99.90
1137;DHT22;557;48.466;7.950;2023-11-18T06:51:15;4.90;99.90
1137;DHT22;557;48.466;7.950;2023-11-18T06:53:42;5.00;99.90
1137;DHT22;557;48.466;7.950;2023-11-18T06:56:10;5.10;99.90
1137;DHT22;557;48.466;7.950;2023-11-18T06:58:38;5.10;99.90
1137;DHT22;557;48.466;7.950;2023-11-18T07:01:06;5.20;99.90
1137;DHT22;557;48.466;7.950;2023-11-18T07:03:33;5.20;99.90
1137;DHT22;557;48.466;7.950;2023-11-18T07:06:01;5.30;99.90
1137;DHT22;557;48.466;7.950;2023-11-18T07:08:31;5.30;99.90
1137;DHT22;557;48.466;7.950;2023-11-18T07:10:58;5.20;99.90
1137;DHT22;557;48.466;7.950;2023-11-18T07:13:25;5.20;99.90
1137;DHT22;557;48.466;7.950;2023-11-18T07:15:53;5.20;99.90
1137;DHT22;557;48.466;7.950;2023-11-18T07:18:22;5.20;99.90
1137;DHT22;557;48.466;7.950;2023-11-18T07:20:48;5.20;99.90
1137;DHT22;557;48.466;7.950;2023-11-18T07:23:16;5.20;99.90
1137;DHT22;557;48.466;7.950;2023-11-18T07:25:43;5.20;99.90
1137;DHT22;557;48.466;7.950;2023-11-18T07:28:11;5.20;99.90
1137;DHT22;557;48.466;7.950;2023-11-18T07:30:40;5.30;99.90
1137;DHT22;557;48.466;7.950;2023-11-18T07:33:09;5.30;99.90
1137;DHT22;557;48.466;7.950;2023-11-18T07:35:36;5.30;99.90
1137;DHT22;557;48.466;7.950;2023-11-18T07:38:03;5.40;99.90
1137;DHT22;557;48.466;7.950;2023-11-18T07:40:33;5.50;99.90
1137;DHT22;557;48.466;7.950;2023-11-18T07:43:00;5.60;99.90
1137;DHT22;557;48.466;7.950;2023-11-18T07:45:28;5.60;99.90
1137;DHT22;557;48.466;7.950;2023-11-18T07:48:03;5.60;99.90
1137;DHT22;557;48.466;7.950;2023-11-18T07:50:33;5.60;99.90
1137;DHT22;557;48.466;7.950;2023-11-18T07:53:00;5.50;99.90
1137;DHT22;557;48.466;7.950;2023-11-18T07:55:27;5.50;99.90
1137;DHT22;557;48.466;7.950;2023-11-18T07:57:55;5.50;99.90
1137;DHT22;557;48.466;7.950;2023-11-18T08:00:22;5.50;99.90
1137;DHT22;557;48.466;7.950;2023-11-18T08:02:49;5.60;99.90
1137;DHT22;557;48.466;7.950;2023-11-18T08:05:17;5.50;99.90
1137;DHT22;557;48.466;7.950;2023-11-18T08:07:46;5.50;99.90
1137;DHT22;557;48.466;7.950;2023-11-18T08:10:13;5.50;99.90
1137;DHT22;557;48.466;7.950;2023-11-18T08:12:44;5.50;99.90
1137;DHT22;557;48.466;7.950;2023-11-18T08:15:12;5.60;99.90
1137;DHT22;557;48.466;7.950;2023-11-18T08:17:39;5.60;99.90
1137;DHT22;557;48.466;7.950;2023-11-18T08:20:07;5.70;99.90
1137;DHT22;557;48.466;7.950;2023-11-18T08:22:40;5.70;99.90
1137;DHT22;557;48.466;7.950;2023-11-18T08:25:09;5.80;99.90
1137;DHT22;557;48.466;7.950;2023-11-18T08:27:38;5.90;99.90
1137;DHT22;557;48.466;7.950;2023-11-18T08:30:06;5.90;99.90
1137;DHT22;557;48.466;7.950;2023-11-18T08:32:36;5.90;99.90
1137;DHT22;557;48.466;7.950;2023-11-18T08:35:05;5.80;99.90
1137;DHT22;557;48.466;7.950;2023-11-18T08:37:33;5.80;99.90
1137;DHT22;557;48.466;7.950;2023-11-18T08:40:01;5.90;99.90
1137;DHT22;557;48.466;7.950;2023-11-18T08:42:38;5.90;99.90
1137;DHT22;557;48.466;7.950;2023-11-18T08:45:06;5.90;99.90
1137;DHT22;557;48.466;7.950;2023-11-18T08:47:33;5.80;99.90
1137;DHT22;557;48.466;7.950;2023-11-18T08:50:00;5.80;99.90
1137;DHT22;557;48.466;7.950;2023-11-18T08:52:37;5.90;99.90
1137;DHT22;557;48.466;7.950;2023-11-18T08:55:10;6.10;99.90
1137;DHT22;557;48.466;7.950;2023-11-18T08:57:46;6.20;99.90
1137;DHT22;557;48.466;7.950;2023-11-18T09:00:24;6.30;99.90
1137;DHT22;557;48.466;7.950;2023-11-18T09:03:12;6.40;99.90
1137;DHT22;557;48.466;7.950;2023-11-18T09:05:44;6.50;99.90
1137;DHT22;557;48.466;7.950;2023-11-18T09:08:25;6.60;99.90
1137;DHT22;557;48.466;7.950;2023-11-18T09:10:53;6.60;99.90
1137;DHT22;557;48.466;7.950;2023-11-18T09:13:23;6.70;99.90
1137;DHT22;557;48.466;7.950;2023-11-18T09:15:54;6.80;99.90
1137;DHT22;557;48.466;7.950;2023-11-18T09:18:22;6.90;99.90
1137;DHT22;557;48.466;7.950;2023-11-18T09:20:50;6.90;99.90
1137;DHT22;557;48.466;7.950;2023-11-18T09:23:18;6.90;99.90
1137;DHT22;557;48.466;7.950;2023-11-18T09:25:46;7.00;99.90
1137;DHT22;557;48.466;7.950;2023-11-18T09:28:14;7.00;99.90
1137;DHT22;557;48.466;7.950;2023-11-18T09:30:43;7.00;99.90
1137;DHT22;557;48.466;7.950;2023-11-18T09:33:19;7.10;99.90
1137;DHT22;557;48.466;7.950;2023-11-18T09:35:55;7.20;99.90
1137;DHT22;557;48.466;7.950;2023-11-18T09:38:26;7.30;99.90
1137;DHT22;557;48.466;7.950;2023-11-18T09:40:54;7.30;99.90
1137;DHT22;557;48.466;7.950;2023-11-18T09:43:21;7.30;99.90
1137;DHT22;557;48.466;7.950;2023-11-18T09:45:54;7.30;99.90
1137;DHT22;557;48.466;7.950;2023-11-18T09:48:21;7.40;99.90
1137;DHT22;557;48.466;7.950;2023-11-18T09:50:52;7.40;99.90
1137;DHT22;557;48.466;7.950;2023-11-18T09:53:20;7.40;99.90
1137;DHT22;557;48.466;7.950;2023-11-18T09:55:56;7.40;99.90
1137;DHT22;557;48.466;7.950;2023-11-18T09:58:34;7.50;99.90
1137;DHT22;557;48.466;7.950;2023-11-18T10:01:08;7.50;99.90
1137;DHT22;557;48.466;7.950;2023-11-18T10:03:41;7.60;99.90
1137;DHT22;557;48.466;7.950;2023-11-18T10:06:12;7.60;99.90
1137;DHT22;557;48.466;7.950;2023-11-18T10:08:40;7.60;99.90
1137;DHT22;557;48.466;7.950;2023-11-18T10:11:11;7.70;99.90
1137;DHT22;557;48.466;7.950;2023-11-18T10:13:40;7.70;99.90
1137;DHT22;557;48.466;7.950;2023-11-18T10:16:11;7.70;99.90
1137;DHT22;557;48.466;7.950;2023-11-18T10:18:39;7.70;99.90
1137;DHT22;557;48.466;7.950;2023-11-18T10:21:14;7.70;99.90
1137;DHT22;557;48.466;7.950;2023-11-18T10:23:58;7.70;99.90
1137;DHT22;557;48.466;7.950;2023-11-18T10:26:25;7.90;99.90
1137;DHT22;557;48.466;7.950;2023-11-18T10:28:52;7.80;99.90
1137;DHT22;557;48.466;7.950;2023-11-18T10:31:21;7.80;99.90
1137;DHT22;557;48.466;7.950;2023-11-18T10:33:49;7.80;99.90
1137;DHT22;557;48.466;7.950;2023-11-18T10:36:18;7.80;99.90
1137;DHT22;557;48.466;7.950;2023-11-18T10:38:48;7.90;99.90
1137;DHT22;557;48.466;7.950;2023-11-18T10:41:18;8.00;99.90
1137;DHT22;557;48.466;7.950;2023-11-18T10:43:45;8.10;99.90
1137;DHT22;557;48.466;7.950;2023-11-18T10:46:14;8.00;99.90
1137;DHT22;557;48.466;7.950;2023-11-18T10:48:43;8.00;99.90
1137;DHT22;557;48.466;7.950;2023-11-18T10:51:14;8.00;99.90
1137;DHT22;557;48.466;7.950;2023-11-18T10:53:42;8.00;99.90
1137;DHT22;557;48.466;7.950;2023-11-18T10:56:20;8.00;99.90
1137;DHT22;557;48.466;7.950;2023-11-18T10:58:52;8.00;99.90
1137;DHT22;557;48.466;7.950;2023-11-18T11:01:27;8.00;99.90
1137;DHT22;557;48.466;7.950;2023-11-18T11:03:56;8.00;99.90
1137;DHT22;557;48.466;7.950;2023-11-18T11:06:23;8.00;99.90
1137;DHT22;557;48.466;7.950;2023-11-18T11:08:51;8.00;99.90
1137;DHT22;557;48.466;7.950;2023-11-18T11:11:20;8.00;99.90
1137;DHT22;557;48.466;7.950;2023-11-18T11:13:49;7.90;99.90
1137;DHT22;557;48.466;7.950;2023-11-18T11:16:19;7.90;99.90
1137;DHT22;557;48.466;7.950;2023-11-18T11:18:53;7.90;99.90
1137;DHT22;557;48.466;7.950;2023-11-18T11:21:26;7.90;99.90
1137;DHT22;557;48.466;7.950;2023-11-18T11:24:00;7.90;99.90
1137;DHT22;557;48.466;7.950;2023-11-18T11:26:37;7.90;99.90
1137;DHT22;557;48.466;7.950;2023-11-18T11:29:24;7.90;99.90
1137;DHT22;557;48.466;7.950;2023-11-18T11:32:03;7.90;99.90
1137;DHT22;557;48.466;7.950;2023-11-18T11:34:40;7.90;99.90
1137;DHT22;557;48.466;7.950;2023-11-18T11:37:14;7.80;99.90
1137;DHT22;557;48.466;7.950;2023-11-18T11:39:43;7.80;99.90
1137;DHT22;557;48.466;7.950;2023-11-18T11:42:13;7.70;99.90
1137;DHT22;557;48.466;7.950;2023-11-18T11:44:43;7.70;99.90
1137;DHT22;557;48.466;7.950;2023-11-18T11:47:11;7.70;99.90
1137;DHT22;557;48.466;7.950;2023-11-18T11:49:47;7.70;99.90
1137;DHT22;557;48.466;7.950;2023-11-18T11:52:22;7.70;99.90
1137;DHT22;557;48.466;7.950;2023-11-18T11:55:00;7.70;99.90
1137;DHT22;557;48.466;7.950;2023-11-18T11:57:30;7.80;99.90
1137;DHT22;557;48.466;7.950;2023-11-18T12:00:03;7.70;99.90
1137;DHT22;557;48.466;7.950;2023-11-18T12:02:48;7.70;99.90
1137;DHT22;557;48.466;7.950;2023-11-18T12:05:16;7.70;99.90
1137;DHT22;557;48.466;7.950;2023-11-18T12:07:47;7.70;99.90
1137;DHT22;557;48.466;7.950;2023-11-18T12:10:14;7.70;99.90
1137;DHT22;557;48.466;7.950;2023-11-18T12:12:48;7.70;99.90
1137;DHT22;557;48.466;7.950;2023-11-18T12:15:48;7.70;99.90
1137;DHT22;557;48.466;7.950;2023-11-18T12:18:20;7.80;99.90
1137;DHT22;557;48.466;7.950;2023-11-18T12:20:58;7.80;99.90
1137;DHT22;557;48.466;7.950;2023-11-18T12:23:28;7.90;99.90
1137;DHT22;557;48.466;7.950;2023-11-18T12:25:56;7.90;99.90
1137;DHT22;557;48.466;7.950;2023-11-18T12:28:27;7.90;99.90
1137;DHT22;557;48.466;7.950;2023-11-18T12:30:57;8.00;99.90
1137;DHT22;557;48.466;7.950;2023-11-18T12:34:00;8.10;99.90
1137;DHT22;557;48.466;7.950;2023-11-18T12:36:58;8.10;99.90
1137;DHT22;557;48.466;7.950;2023-11-18T12:39:54;8.20;99.90
1137;DHT22;557;48.466;7.950;2023-11-18T12:43:01;8.20;99.90
1137;DHT22;557;48.466;7.950;2023-11-18T12:46:17;8.20;99.90
1137;DHT22;557;48.466;7.950;2023-11-18T12:48:50;8.30;99.90
1137;DHT22;557;48.466;7.950;2023-11-18T12:51:21;8.30;99.90
1137;DHT22;557;48.466;7.950;2023-11-18T12:53:49;8.40;99.90
1137;DHT22;557;48.466;7.950;2023-11-18T12:56:19;8.40;99.90
1137;DHT22;557;48.466;7.950;2023-11-18T12:58:48;8.40;99.90
1137;DHT22;557;48.466;7.950;2023-11-18T13:01:16;8.30;99.90
1137;DHT22;557;48.466;7.950;2023-11-18T13:03:44;8.30;99.90
1137;DHT22;557;48.466;7.950;2023-11-18T13:06:12;8.30;99.90
1137;DHT22;557;48.466;7.950;2023-11-18T13:08:40;8.30;99.90
1137;DHT22;557;48.466;7.950;2023-11-18T13:11:08;8.30;99.90
1137;DHT22;557;48.466;7.950;2023-11-18T13:13:41;8.30;99.90
1137;DHT22;557;48.466;7.950;2023-11-18T13:16:08;8.30;99.90
1137;DHT22;557;48.466;7.950;2023-11-18T13:18:42;8.30;99.90
1137;DHT22;557;48.466;7.950;2023-11-18T13:21:14;8.40;99.90
1137;DHT22;557;48.466;7.950;2023-11-18T13:23:45;8.40;99.90
1137;DHT22;557;48.466;7.950;2023-11-18T13:26:17;8.40;99.90
1137;DHT22;557;48.466;7.950;2023-11-18T13:28:46;8.40;99.90
1137;DHT22;557;48.466;7.950;2023-11-18T13:31:13;8.40;99.90
1137;DHT22;557;48.466;7.950;2023-11-18T13:33:43;8.40;99.90
1137;DHT22;557;48.466;7.950;2023-11-18T13:36:12;8.50;99.90
1137;DHT22;557;48.466;7.950;2023-11-18T13:38:39;8.50;99.90
1137;DHT22;557;48.466;7.950;2023-11-18T13:41:07;8.50;99.90
1137;DHT22;557;48.466;7.950;2023-11-18T13:43:45;8.50;99.90
1137;DHT22;557;48.466;7.950;2023-11-18T13:46:13;8.50;99.90
1137;DHT22;557;48.466;7.950;2023-11-18T13:48:40;8.50;99.90
1137;DHT22;557;48.466;7.950;2023-11-18T13:51:09;8.50;99.90
1137;DHT22;557;48.466;7.950;2023-11-18T13:53:45;8.50;99.90
1137;DHT22;557;48.466;7.950;2023-11-18T13:56:13;8.50;99.90
1137;DHT22;557;48.466;7.950;2023-11-18T13:58:44;8.60;99.90
1137;DHT22;557;48.466;7.950;2023-11-18T14:01:11;8.60;99.90
1137;DHT22;557;48.466;7.950;2023-11-18T14:03:40;8.70;99.90
1137;DHT22;557;48.466;7.950;2023-11-18T14:06:09;8.70;99.90
1137;DHT22;557;48.466;7.950;2023-11-18T14:08:38;8.80;99.90
1137;DHT22;557;48.466;7.950;2023-11-18T14:11:05;8.70;99.90
1137;DHT22;557;48.466;7.950;2023-11-18T14:13:35;8.70;99.90
1137;DHT22;557;48.466;7.950;2023-11-18T14:16:05;8.70;99.90
1137;DHT22;557;48.466;7.950;2023-11-18T14:18:35;8.70;99.90
1137;DHT22;557;48.466;7.950;2023-11-18T14:21:03;8.70;99.90
1137;DHT22;557;48.466;7.950;2023-11-18T14:23:31;8.70;99.90
1137;DHT22;557;48.466;7.950;2023-11-18T14:25:58;8.80;99.90
1137;DHT22;557;48.466;7.950;2023-11-18T14:28:25;8.80;99.90
1137;DHT22;557;48.466;7.950;2023-11-18T14:30:51;8.70;99.90
1137;DHT22;557;48.466;7.950;2023-11-18T14:33:20;8.70;99.90
1137;DHT22;557;48.466;7.950;2023-11-18T14:35:46;8.70;99.90
1137;DHT22;557;48.466;7.950;2023-11-18T14:38:19;8.70;99.90
1137;DHT22;557;48.466;7.950;2023-11-18T14:41:05;8.70;99.90
1137;DHT22;557;48.466;7.950;2023-11-18T14:43:47;8.70;99.90
1137;DHT22;557;48.466;7.950;2023-11-18T14:46:15;8.60;99.90
1137;DHT22;557;48.466;7.950;2023-11-18T14:48:46;8.60;99.90
1137;DHT22;557;48.466;7.950;2023-11-18T14:51:16;8.60;99.90
1137;DHT22;557;48.466;7.950;2023-11-18T14:53:43;8.60;99.90
1137;DHT22;557;48.466;7.950;2023-11-18T14:56:10;8.60;99.90
1137;DHT22;557;48.466;7.950;2023-11-18T14:58:36;8.50;99.90
1137;DHT22;557;48.466;7.950;2023-11-18T15:01:05;8.60;99.90
1137;DHT22;557;48.466;7.950;2023-11-18T15:03:36;8.60;99.90
1137;DHT22;557;48.466;7.950;2023-11-18T15:06:05;8.60;99.90
1137;DHT22;557;48.466;7.950;2023-11-18T15:08:32;8.50;99.90
1137;DHT22;557;48.466;7.950;2023-11-18T15:10:59;8.50;99.90
1137;DHT22;557;48.466;7.950;2023-11-18T15:13:26;8.50;99.90
1137;DHT22;557;48.466;7.950;2023-11-18T15:15:53;8.60;99.90
1137;DHT22;557;48.466;7.950;2023-11-18T15:18:21;8.60;99.90
1137;DHT22;557;48.466;7.950;2023-11-18T15:20:51;8.60;99.90
1137;DHT22;557;48.466;7.950;2023-11-18T15:23:22;8.70;99.90
1137;DHT22;557;48.466;7.950;2023-11-18T15:25:49;8.70;99.90
1137;DHT22;557;48.466;7.950;2023-11-18T15:28:16;8.70;99.90
1137;DHT22;557;48.466;7.950;2023-11-18T15:30:45;8.70;99.90
1137;DHT22;557;48.466;7.950;2023-11-18T15:33:12;8.70;99.90
1137;DHT22;557;48.466;7.950;2023-11-18T15:35:40;8.70;99.90
1137;DHT22;557;48.466;7.950;2023-11-18T15:38:07;8.70;99.90
1137;DHT22;557;48.466;7.950;2023-11-18T15:40:36;8.60;99.90
1137;DHT22;557;48.466;7.950;2023-11-18T15:43:04;8.60;99.90
1137;DHT22;557;48.466;7.950;2023-11-18T15:45:32;8.60;99.90
1137;DHT22;557;48.466;7.950;2023-11-18T15:48:00;8.60;99.90
1137;DHT22;557;48.466;7.950;2023-11-18T15:50:31;8.50;99.90
1137;DHT22;557;48.466;7.950;2023-11-18T15:53:00;8.50;99.90
1137;DHT22;557;48.466;7.950;2023-11-18T15:55:27;8.50;99.90
1137;DHT22;557;48.466;7.950;2023-11-18T15:58:06;8.40;99.90
1137;DHT22;557;48.466;7.950;2023-11-18T16:00:35;8.50;99.90
1137;DHT22;557;48.466;7.950;2023-11-18T16:03:02;8.50;99.90
1137;DHT22;557;48.466;7.950;2023-11-18T16:05:30;8.40;99.90
1137;DHT22;557;48.466;7.950;2023-11-18T16:07:58;8.40;99.90
1137;DHT22;557;48.466;7.950;2023-11-18T16:10:27;8.40;99.90
1137;DHT22;557;48.466;7.950;2023-11-18T16:12:58;8.40;99.90
1137;DHT22;557;48.466;7.950;2023-11-18T16:15:26;8.50;99.90
1137;DHT22;557;48.466;7.950;2023-11-18T16:17:54;8.50;99.90
1137;DHT22;557;48.466;7.950;2023-11-18T16:20:23;8.50;99.90
1137;DHT22;557;48.466;7.950;2023-11-18T16:22:52;8.50;99.90
1137;DHT22;557;48.466;7.950;2023-11-18T16:25:20;8.50;99.90
1137;DHT22;557;48.466;7.950;2023-11-18T16:27:49;8.50;99.90
1137;DHT22;557;48.466;7.950;2023-11-18T16:30:20;8.60;99.90
1137;DHT22;557;48.466;7.950;2023-11-18T16:32:50;8.60;99.90
1137;DHT22;557;48.466;7.950;2023-11-18T16:35:17;8.60;99.90
1137;DHT22;557;48.466;7.950;2023-11-18T16:37:46;8.60;99.90
1137;DHT22;557;48.466;7.950;2023-11-18T16:40:15;8.60;99.90
1137;DHT22;557;48.466;7.950;2023-11-18T16:42:44;8.60;99.90
1137;DHT22;557;48.466;7.950;2023-11-18T16:45:11;8.50;99.90
1137;DHT22;557;48.466;7.950;2023-11-18T16:47:49;8.50;99.90
1137;DHT22;557;48.466;7.950;2023-11-18T16:50:18;8.40;99.90